This is the latest recevied weather packets stored in our database for station/object IU1CYJ. If no packets are shown the sender has not sent any weather packets the latest 10 day(s).
| Time | Temp. | Humidity | Pressure | Rain* | Wind** | Luminosity | Snow |
|---|---|---|---|---|---|---|---|
| 1777828553 | 20.56° C | 47% | 1016.8 hPa | 0 mm | - | - | - |
| 1777826755 | 21.11° C | 45% | 1016.7 hPa | 0 mm | - | - | - |
| 1777824956 | 21.67° C | 46% | 1016.7 hPa | 0 mm | - | - | - |
| 1777817755 | 21.67° C | 48% | 1017.5 hPa | 0 mm | - | - | - |
| 1777816859 | 21.67° C | 47% | 1017.7 hPa | 0 mm | - | - | - |
| 1777815955 | 21.67° C | 47% | 1017.9 hPa | 0 mm | - | - | - |
| 1777812360 | 21.11° C | 50% | 1018.7 hPa | 0 mm | - | - | - |
| 1777808761 | 21.11° C | 48% | 1018.9 hPa | 0 mm | - | - | - |
| 1777806058 | 21.11° C | 52% | 1019.1 hPa | 0 mm | - | - | - |
| 1777803357 | 21.11° C | 53% | 1019.6 hPa | 0 mm | - | - | - |
| 1777801554 | 21.11° C | 49% | 1019.6 hPa | 0 mm | - | - | - |
| 1777797053 | 17.22° C | 60% | 1019.7 hPa | 0 mm | - | - | - |
| 1777795252 | 16.11° C | 63% | 1019.7 hPa | 0 mm | - | - | - |
| 1777788955 | 14.44° C | 74% | 1019.6 hPa | 0 mm | - | - | - |
| 1777787156 | 12.22° C | 81% | 1019.7 hPa | 0 mm | - | - | - |
| 1777785361 | 11.67° C | 81% | 1019.7 hPa | 0 mm | - | - | - |
| 1777768265 | 14.44° C | 70% | 1020.1 hPa | 0 mm | - | - | - |
| 1777758359 | 17.78° C | 57% | 1020.8 hPa | 0 mm | - | - | - |
| 1777752056 | 17.78° C | 60% | 1020.9 hPa | 0 mm | - | - | - |
| 1777743056 | 21.11° C | 46% | 1020.2 hPa | 0 mm | - | - | - |
| 1777739461 | 21.67° C | 43% | 1020.5 hPa | 0 mm | - | - | - |
| 1777737656 | 21.67° C | 44% | 1020.9 hPa | 0 mm | - | - | - |
| 1777734957 | 21.67° C | 44% | 1021.3 hPa | 0 mm | - | - | - |
| 1777731357 | 21.67° C | 42% | 1022.1 hPa | 0 mm | - | - | - |
| 1777728655 | 21.11° C | 43% | 1023 hPa | 0 mm | - | - | - |
* Rain latest hour (hover to see other rain measurements)
** Current wind speed in m/s (hover to see current wind gust speed)